LAKE NATOMA (NIMBUS DAM) (NAT)

Elevation: 132' · AMERICAN R basin · Operator: US Bureau of Reclamation

Provisional data, subject to change.
Query executed Monday at 21:53:30   clock

Select a sensor type for a plot of data.
Note: Reservoir Flows are daily averages.

Earlier

Date RES ELE    STORAGE    RES CHG    OUTFLOW    INFLOW    SPILL    DIS PWR   
 FEET   AF   AF   CFS   CFS   CFS   CFS  
03/01/2015 121.15 6984 -109 871 817 0 772
03/02/2015 121.43 7102 118 875 935 0 776
03/03/2015 122.15 7409 307 797 953 0 698
03/04/2015 122.17 7418 9 804 810 0 705
03/05/2015 122.20 7431 13 895 903 0 796
03/06/2015 122.39 7517 86 917 961 0 823
03/07/2015 122.14 7404 -113 880 825 0 791
03/08/2015 122.24 7449 45 866 890 0 781
03/09/2015 121.95 7320 -129 862 797 0 778
03/10/2015 121.50 7131 -189 816 721 0 743
03/11/2015 121.91 7303 172 806 893 230 506
03/12/2015 121.91 7303 0 858 858 0 785
03/13/2015 122.22 7440 137 883 952 0 795
03/14/2015 122.15 7409 -31 890 874 0 795
03/15/2015 121.76 7240 -169 895 812 0 797
03/16/2015 121.22 7013 -227 899 786 0 794
03/17/2015 121.96 7324 311 900 1058 0 793
03/18/2015 121.96 7324 0 873 874 0 766
03/19/2015 121.64 7190 -134 882 816 0 776
03/20/2015 122.09 7382 192 886 985 0 786
03/21/2015 122.00 7341 -41 881 861 0 781
03/22/2015 121.84 7274 -67 881 848 0 781
03/23/2015 121.77 7244 -30 882 868 346 436
03/24/2015 121.64 7190 -54 756 730 386 293
03/25/2015 121.50 7131 -59 695 666 323 291
03/26/2015 121.60 7173 42 659 681 276 290
03/27/2015 122.18 7422 249 630 757 172 365
03/28/2015 123.33 7946 524 598 863 0 505
03/29/2015 123.05 7815 -131 871 806 0 778
03/30/2015 -- -- -- -- -- -- --

Later | Latest

Warning! This data is preliminary and subject to revision.

Show NAT Map | Plot NAT Data | 1 Month NAT Data | Real-Time NAT Data | NAT Info